Terminal Aerodrome Forecast
Issued by NWS Lake Charles, LA

Home | Current Version | Previous Version | Text Only | Print | Product List | Glossary On
Versions: 1 2 3 4 5 6 7 8 9 10 11 12 13 14 15
000
FTUS44 KLCH 222320
TAFLFT
TAF
KLFT 222320Z 2300/2324 17010KT P6SM SCT035
     FM230300 15008KT 6SM BR OVC015
     FM230600 14006KT 4SM BR OVC008
     FM230900 13003KT 2SM BR OVC004
     FM231500 14007KT P6SM BKN015
     FM232100 15010KT P6SM OVC035=

USA.gov is the U.S. government's official web portal to all federal, state and local government web resources and services.